Tiempo atmosférico en la estación meteorológica de Villafranca De Los Barros, Badajoz (430 m.)



Fecha
DESCASC
Temp. máxima en grados centígrados (hora)
DESCASC
Temp. mínima en grados centígrados (hora)
DESCASC
Temp. media en grados centígrados
DESCASC
Racha de viento máxima en m/sg (hora)
DESCASC
Velocidad máxima media en intervalos de 10 minutos(hora)
DESCASC
Precipitaciones diarias en mm
DESCASC
Precipitaciones de 00:00 a 06:00 en mm
DESCASC
Precipitaciones de 06:00 a 12:00 en mm
DESCASC
Precipitaciones de 12:00 a 18:00 en mm
DESCASC
Precipitaciones de 18:00 a 24:00 en mm
DESCASC
27-10-2020 15.8 (15:40) 4.8 (07:50) 10.3 7.22 (15:40) 4.17 (16:40) 0 0 0 0 0
26-10-2020 14.7 (16:40) 8.6 (08:00) 11.7 10.28 (00:10) 6.67 (00:10) 1.6 1.6 0 0 0
25-10-2020 18.3 (14:30) 9 (07:00) 13.6 13.89 (14:40) 9.17 (16:20) 7.4 0 0 1.6 5.8
24-10-2020 18.2 (15:30) 6.5 (00:00) 12.4 5 (18:10) 2.78 (17:10) 0 0 0 0 0
23-10-2020 17.7 (17:30) 9.5 (00:00) 13.6 6.11 (13:20) 3.89 (12:20) 0.2 0 0 0.2 0
22-10-2020 19.8 (14:50) 11.6 (00:00) 15.7 9.72 (20:20) 6.11 (22:50) 14.4 0 0 0.4 14
21-10-2020 20.5 (16:20) 13.2 (00:00) 16.8 11.11 (17:30) 7.5 (17:30) 2.8 0.2 0.2 0 2.4
20-10-2020 20.1 (14:50) 14.6 (00:00) 17.4 21.67 (17:20) 14.44 (17:30) 52.6 0 31.4 1 20.2
19-10-2020 27.8 (14:20) 11.1 (00:00) 19.4 15.28 (14:40) 10.28 (15:50) 0 0 0 0 0
18-10-2020 26 (17:10) 6.5 (00:00) 16.3 8.89 (17:10) 5 (08:00) 0 0 0 0 0
17-10-2020 22.9 (15:20) 4 (00:00) 13.4 6.67 (15:20) 3.61 (17:20) 0 0 0 0 0
16-10-2020 21.9 (17:20) 2.1 (00:00) 12 7.5 (15:20) 3.33 (18:10) 0 0 0 0 0
15-10-2020 19.9 (16:50) 5.7 (00:00) 12.8 7.5 (17:00) 4.17 (16:50) 0 0 0 0 0
14-10-2020 20 (17:30) 8.9 (00:00) 14.4 12.78 (15:00) 7.22 (16:50) 0 0 0 0 0
13-10-2020 25.4 (16:40) 3.6 (00:00) 14.5 9.44 (23:40) 6.39 (23:40) 0 0 0 0 0
12-10-2020 22.2 (16:40) 4.7 (00:00) 13.5 7.22 (17:20) 4.17 (12:30) 0 0 0 0 0
11-10-2020 25.3 (17:30) 6.9 (00:00) 16.1 9.72 (16:00) 5 (15:00) 0 0 0 0 0
10-10-2020 29.3 (17:20) 10.3 (00:00) 19.8 6.11 (16:10) 3.89 (18:00) 0 0 0 0 0
09-10-2020 29.6 (16:50) 11.2 (00:00) 20.4 7.22 (18:40) 5.28 (18:40) 0 0 0 0 0
08-10-2020 31.3 (15:40) 11 (00:00) 21.1 7.78 (17:30) 4.72 (11:50) 0 0 0 0 0
07-10-2020 29 (16:20) 8.2 (00:00) 18.6 5.56 (18:00) 3.33 (18:50) 0 0 0 0 0
06-10-2020 25.7 (18:10) 9.7 (00:00) 17.7 6.67 (16:00) 4.17 (18:30) 0 0 0 0 0
05-10-2020 21.7 (18:10) 9.4 (00:00) 15.6 10 (15:50) 6.11 (15:30) 0 0 0 0 0
04-10-2020 19.7 (18:20) 6.7 (00:00) 13.2 11.11 (14:40) 7.5 (14:40) 0 0 0 0 0
03-10-2020 19.1 (16:00) 8.1 (00:00) 13.6 11.94 (16:10) 7.22 (16:40) 0 0 0 0 0
02-10-2020 19 (13:00) 10.4 (00:00) 14.7 18.33 (13:20) 12.22 (13:20) 1.8 0 0 1.8 0
01-10-2020 24 (15:20) 10.2 (00:00) 17.1 11.67 (16:10) 8.06 (16:00) 0 0 0 0 0
30-09-2020 30 (16:50) 10.4 (00:00) 20.2 9.17 (17:10) 6.39 (17:40) 0 0 0 0 0

Gráficas

Temp. máximas Temp. mínimas Temp. medias Precipitaciones Rachas de viento máximas Velocidades máximas media en intervalos de 10 minutos

Datos horarios

Fecha y hora oficial Temperatura (ºC) Velocidad del viento (km/h) Dirección del viento Racha (km/h) Dirección de racha Precipitación (mm) Presión (hPa) Tendencia (hPa) Humedad (%)
2020-10-29 23:00:00 14.2 8 Sudeste 10 Sudeste 0 -- -- 86
2020-10-29 22:00:00 16.1 10 Sudeste 14 Sudeste 0 -- -- 81
2020-10-29 21:00:00 16.4 7 Sudeste 12 Nordeste 0 -- -- 82
2020-10-29 20:00:00 18.3 8 Nordeste 13 Este 0 -- -- 74
2020-10-29 19:00:00 19.3 8 Nordeste 17 Nordeste 0 -- -- 72
2020-10-29 18:00:00 22.2 10 Norte 15 Norte 0 -- -- 62
2020-10-29 17:00:00 23.9 10 Este 19 Este 0 -- -- 50
2020-10-29 16:00:00 24 7 Sudeste 16 Este 0 -- -- 50
2020-10-29 15:00:00 23.4 10 Sudeste 18 Este 0 -- -- 54
2020-10-29 14:00:00 22.1 11 Sudeste 19 Sudeste 0 -- -- 61
2020-10-29 13:00:00 20.9 10 Este 19 Este 0 -- -- 66
2020-10-29 12:00:00 18.9 8 Este 17 Sudeste 0 -- -- 73
2020-10-29 11:00:00 17.5 8 Este 12 Este 0 -- -- 79
2020-10-29 10:00:00 15.6 5 Este 11 Este 0 -- -- 88
2020-10-29 09:00:00 12.2 5 Sudeste 6 Sudeste 0 -- -- 99
2020-10-29 08:00:00 9.2 4 Sur -- -- 0 -- -- 98
2020-10-29 07:00:00 9.6 -- -- -- -- 0 -- -- 98
2020-10-29 06:00:00 9.5 3 Sudeste 4 Sudeste 0 -- -- 97
2020-10-29 05:00:00 10.1 3 Sur 5 Sur 0 -- -- 97
2020-10-29 04:00:00 10.4 5 Sur 6 Sur 0 -- -- 96
2020-10-29 03:00:00 10.9 0 Calma 6 Sur 0 -- -- 96
2020-10-29 02:00:00 11.7 3 Sur 5 Sur 0 -- -- 95
2020-10-29 01:00:00 12.6 0 Calma 6 Sudeste 0 -- -- 93
2020-10-29 00:00:00 13.8 4 Sur 9 Sur 0 -- -- 90
2020-10-28 23:00:00 15.5 6 Sudeste 10 Nordeste 0 -- -- 88
2020-10-28 22:00:00 16.2 7 Nordeste 14 Nordeste 0 -- -- 84
2020-10-28 21:00:00 16.3 7 Nordeste 14 Nordeste 0 -- -- 84
2020-10-28 20:00:00 16.3 6 Norte 11 Norte 0 -- -- 85
2020-10-28 19:00:00 16.6 8 Norte 12 Noroeste 0 -- -- 83
2020-10-28 18:00:00 18.3 5 Norte 12 Norte 0 -- -- 76
2020-10-28 17:00:00 20 5 Oeste 12 Norte 0 -- -- 69
2020-10-28 16:00:00 19.4 4 Nordeste 13 Norte 0 -- -- 69
2020-10-28 15:00:00 18.6 7 Noroeste 14 Norte 0 -- -- 71
2020-10-28 14:00:00 18 5 Norte 9 Norte 0 -- -- 72
2020-10-28 13:00:00 17.7 5 Sudeste 12 Sudeste 0 -- -- 70
2020-10-28 12:00:00 16.2 4 Norte 9 Este 0 -- -- 73
2020-10-28 11:00:00 15.7 5 Sudeste 10 Este 0 -- -- 74
2020-10-28 10:00:00 14.7 2 Este 4 Este 0 -- -- 77
2020-10-28 09:00:00 11.6 0 Calma 5 Sur 0 -- -- 95
2020-10-28 08:00:00 10.4 3 Sur 6 Sudeste 0 -- -- 93
2020-10-28 07:00:00 11.4 0 Calma 5 Noroeste 0 -- -- 92
2020-10-28 06:00:00 11.7 0 Calma 5 Oeste 0 -- -- 90
2020-10-28 05:00:00 11.4 3 Oeste 5 Oeste 0 -- -- 91
2020-10-28 04:00:00 10.6 0 Calma 7 Sudoeste 0 -- -- 93
2020-10-28 03:00:00 9.6 4 Sur 5 Sur 0 -- -- 96
2020-10-28 02:00:00 8.6 3 Sur 5 Sur 0 -- -- 95
2020-10-28 01:00:00 8.7 3 Sur 6 Sur 0 -- -- 94
2020-10-28 00:00:00 8.7 3 Sur 6 Sur 0 -- -- 95
2020-10-27 23:00:00 8.7 4 Sur 6 Sur 0 -- -- 95
2020-10-27 22:00:00 9.1 4 Sudeste 5 Sur 0 -- -- 93
2020-10-27 21:00:00 10.1 4 Sur 5 Sur 0 -- -- 91
2020-10-27 20:00:00 12 0 Calma 10 Norte 0 -- -- 84
2020-10-27 19:00:00 13.4 8 Norte 18 Noroeste 0 -- -- 77
2020-10-27 18:00:00 14.9 14 Noroeste 24 Noroeste 0 -- -- 69
2020-10-27 17:00:00 15.5 11 Noroeste 22 Noroeste 0 -- -- 64
2020-10-27 16:00:00 15.7 13 Noroeste 26 Noroeste 0 -- -- 65
2020-10-27 15:00:00 15.6 13 Noroeste 21 Noroeste 0 -- -- 66
2020-10-27 14:00:00 14.6 10 Noroeste 18 Noroeste 0 -- -- 66
2020-10-27 13:00:00 14.2 12 Oeste 23 Oeste 0 -- -- 64
2020-10-27 12:00:00 13.9 4 Noroeste 13 Oeste 0 -- -- 65
2020-10-27 11:00:00 12.7 3 Oeste 10 Oeste 0 -- -- 69
2020-10-27 10:00:00 10.7 4 Sudoeste 7 Sudoeste 0 -- -- 78
2020-10-27 09:00:00 7.1 4 Sur 5 Sur 0 -- -- 97
2020-10-27 08:00:00 4.8 2 Sur 4 Sur 0 -- -- 95
2020-10-27 07:00:00 5.1 3 Sur 8 Sur 0 -- -- 94
2020-10-27 06:00:00 5.5 4 Sur 7 Sur 0 -- -- 92
2020-10-27 05:00:00 6.6 3 Sudoeste 8 Oeste 0 -- -- 92
2020-10-27 04:00:00 7.4 8 Oeste 13 Oeste 0 -- -- 90
2020-10-27 03:00:00 7.8 9 Oeste 13 Oeste 0 -- -- 89
2020-10-27 02:00:00 7.4 3 Sur 8 Oeste 0 -- -- 90
2020-10-27 01:00:00 8.5 4 Sudoeste 12 Oeste 0 -- -- 85
2020-10-27 00:00:00 9.1 9 Oeste 13 Oeste 0 -- -- 82
2020-10-26 23:00:00 9.5 8 Oeste 13 Oeste 0 -- -- 81
2020-10-26 22:00:00 9.5 9 Sudoeste 12 Oeste 0 -- -- 83
2020-10-26 21:00:00 10.3 7 Sudoeste 11 Oeste 0 -- -- 81
2020-10-26 20:00:00 11.1 9 Oeste 12 Oeste 0 -- -- 77
2020-10-26 19:00:00 12.3 6 Oeste 19 Noroeste 0 -- -- 70
2020-10-26 18:00:00 14 11 Noroeste 23 Noroeste 0 -- -- 62
2020-10-26 17:00:00 14.7 16 Oeste 26 Noroeste 0 -- -- 62
2020-10-26 16:00:00 14.5 12 Noroeste 26 Noroeste 0 -- -- 61
2020-10-26 15:00:00 13.6 16 Noroeste 26 Noroeste 0 -- -- 65
2020-10-26 14:00:00 13.2 17 Noroeste 26 Noroeste 0 -- -- 69
2020-10-26 13:00:00 12.7 14 Noroeste 28 Noroeste 0 -- -- 70
2020-10-26 12:00:00 12 18 Noroeste 27 Oeste 0 -- -- 72
2020-10-26 11:00:00 11.1 19 Noroeste 30 Noroeste 0 -- -- 79
2020-10-26 10:00:00 10.4 21 Noroeste 32 Oeste 0 -- -- 84
2020-10-26 09:00:00 9.3 17 Oeste 25 Oeste 0 -- -- 89
2020-10-26 08:00:00 8.6 17 Oeste 26 Oeste 0 -- -- 90
2020-10-26 07:00:00 9 15 Oeste 28 Oeste 0 -- -- 89
2020-10-26 06:00:00 9.3 15 Oeste 24 Oeste 0 -- -- 92
2020-10-26 05:00:00 9.7 13 Noroeste 35 Oeste 1.6 -- -- 91
2020-10-26 04:00:00 10.4 18 Oeste 29 Noroeste 0 -- -- 91
2020-10-26 03:00:00 10.4 17 Oeste 31 Oeste 0 -- -- 90
2020-10-26 02:00:00 11 22 Oeste 34 Noroeste 0 -- -- 86
2020-10-26 01:00:00 11.3 18 Oeste 37 Noroeste 0 -- -- 88
2020-10-26 00:00:00 11.6 26 Noroeste 41 Oeste 0 -- -- 89
2020-10-25 23:00:00 11.5 13 Oeste 36 Noroeste 0.4 -- -- 95
2020-10-25 22:00:00 13.4 21 Oeste 37 Oeste 0.2 -- -- 87
2020-10-25 21:00:00 13 28 Oeste 45 Oeste 0.6 -- -- 90
2020-10-25 20:00:00 13.6 16 Oeste 26 Sudoeste 0.6 -- -- 93
2020-10-25 19:00:00 13.2 17 Oeste 40 Oeste 4 -- -- 95
2020-10-25 18:00:00 14.2 19 Oeste 46 Sudoeste 1.6 -- -- 91
2020-10-25 17:00:00 16.6 26 Sudoeste 48 Sudoeste 0 -- -- 79
2020-10-25 16:00:00 17.8 26 Sudoeste 45 Sudoeste 0 -- -- 74
2020-10-25 15:00:00 17.5 32 Sudoeste 50 Sudoeste 0 -- -- 75
2020-10-25 14:00:00 17.7 25 Sudoeste 39 Sudoeste 0 -- -- 69
2020-10-25 13:00:00 17.5 24 Sudoeste 36 Sudoeste 0 -- -- 72
2020-10-25 12:00:00 16 24 Sudoeste 40 Sudoeste 0 -- -- 77
2020-10-25 11:00:00 14 21 Sudoeste 34 Sudoeste 0 -- -- 86
2020-10-25 10:00:00 13.7 18 Sudoeste 30 Sudoeste 0 -- -- 83
2020-10-25 09:00:00 11.6 14 Sur 22 Sur 0 -- -- 86
2020-10-25 08:00:00 10.7 13 Sur 22 Sur 0 -- -- 89
2020-10-25 07:00:00 9 8 Sudeste 18 Sur 0 -- -- 94
2020-10-25 06:00:00 9.3 8 Sudeste 14 Sudeste 0 -- -- 94
2020-10-25 05:00:00 9.6 7 Sur 15 Sur 0 -- -- 92
2020-10-25 04:00:00 9.9 10 Sur 14 Sudoeste 0 -- -- 92
2020-10-25 03:00:00 9.8 5 Sudoeste 10 Sur 0 -- -- 92
2020-10-25 02:00:00 10 8 Sudoeste 14 Sur 0 -- -- 89
2020-10-25 01:00:00 10.2 6 Sudoeste 9 Sudoeste 0 -- -- 89
2020-10-25 00:00:00 10.6 7 Sudoeste 9 Sudoeste 0 -- -- 88
2020-10-24 23:00:00 11 6 Sur 9 Oeste 0 -- -- 88
2020-10-24 22:00:00 11.9 4 Sur 8 Sudoeste 0 -- -- 88
2020-10-24 21:00:00 12.9 4 Sudoeste 6 Sudoeste 0 -- -- 87
2020-10-24 20:00:00 14.8 0 Calma 9 Noroeste 0 -- -- 79
2020-10-24 19:00:00 16.9 8 Noroeste 18 Noroeste 0 -- -- 68
2020-10-24 18:00:00 17.9 8 Noroeste 16 Oeste 0 -- -- 64
2020-10-24 17:00:00 17.9 10 Noroeste 16 Noroeste 0 -- -- 66
2020-10-24 16:00:00 17.9 8 Oeste 17 Sudoeste 0 -- -- 63
2020-10-24 15:00:00 18.1 6 Sudoeste 13 Oeste 0 -- -- 62
2020-10-24 14:00:00 17.4 4 Sudeste 13 Oeste 0 -- -- 64
2020-10-24 13:00:00 16.8 4 Sudoeste 12 Oeste 0 -- -- 69
2020-10-24 12:00:00 15.3 4 Noroeste 8 Oeste 0 -- -- 71
2020-10-24 11:00:00 14.4 3 Sur 5 Sur 0 -- -- 76
2020-10-24 10:00:00 10.2 4 Sur 6 Sur 0 -- -- 98
2020-10-24 09:00:00 6.8 4 Sur 8 Sur 0 -- -- 97
2020-10-24 08:00:00 6.7 4 Sudeste 5 Sudeste 0 -- -- 96
2020-10-24 07:00:00 7.3 0 Calma 4 Sur 0 -- -- 96
2020-10-24 06:00:00 7.7 0 Calma 6 Sur 0 -- -- 96
2020-10-24 05:00:00 8 3 Sur 5 Sur 0 -- -- 96
2020-10-24 04:00:00 8.3 3 Sur 5 Sur 0 -- -- 95
2020-10-24 03:00:00 8.4 3 Sur 5 Sur 0 -- -- 95
2020-10-24 02:00:00 8.9 3 Sur 4 Sudeste 0 -- -- 94
2020-10-24 01:00:00 9.6 3 Sur -- -- 0 -- -- 93
2020-10-24 00:00:00 10.3 4 Sur 6 Sur 0 -- -- 92
2020-10-23 23:00:00 11.3 0 Calma 4 Sur 0 -- -- 94
2020-10-23 22:00:00 12 4 Sur 5 Sur 0 -- -- 92
2020-10-23 21:00:00 13.7 3 Sur 9 Noroeste 0 -- -- 89
2020-10-23 20:00:00 15.4 5 Noroeste 7 Noroeste 0 -- -- 81
2020-10-23 19:00:00 16.9 3 Oeste 10 Oeste 0 -- -- 73
2020-10-23 18:00:00 16.9 4 Oeste 12 Sudoeste 0 -- -- 72
2020-10-23 17:00:00 16.1 4 Noroeste 16 Sudoeste 0 -- -- 74
2020-10-23 16:00:00 17 13 Sudoeste 21 Oeste 0 -- -- 72
2020-10-23 15:00:00 15.7 9 Oeste 14 Oeste 0 -- -- 78
2020-10-23 14:00:00 15 0 Calma 22 Oeste 0.2 -- -- 82
2020-10-23 13:00:00 15.6 11 Sudoeste 22 Sudoeste 0 -- -- 76
2020-10-23 12:00:00 15.6 12 Sudoeste 20 Sudoeste 0 -- -- 82
2020-10-23 11:00:00 13.6 10 Sudoeste 14 Sudoeste 0 -- -- 87
2020-10-23 10:00:00 11.9 4 Sur 10 Sur 0 -- -- 95
2020-10-23 09:00:00 10 4 Sur 11 Sur 0 -- -- 97
2020-10-23 08:00:00 9.7 9 Sur 12 Sur 0 -- -- 97
2020-10-23 07:00:00 9.8 6 Sudeste 9 Sudeste 0 -- -- 96
2020-10-23 06:00:00 9.9 6 Sur 9 Sur 0 -- -- 96
2020-10-23 05:00:00 9.8 8 Sudoeste 10 Sudoeste 0 -- -- 96
2020-10-23 04:00:00 10.3 3 Sudoeste 8 Sudoeste 0 -- -- 94
2020-10-23 03:00:00 11.2 6 Sudoeste 9 Sudoeste 0 -- -- 93
2020-10-23 02:00:00 12 6 Sudoeste 9 Sudoeste 0 -- -- 92
2020-10-23 01:00:00 12.2 5 Sudoeste 12 Sudoeste 0 -- -- 93
2020-10-23 00:00:00 12.2 6 Sudoeste 17 Sudoeste 3.2 -- -- 92
2020-10-22 23:00:00 12.4 16 Sur 30 Sur 8.2 -- -- 92
2020-10-22 22:00:00 13.3 11 Sudoeste 23 Sudoeste 2.6 -- -- 89
2020-10-22 21:00:00 13.7 9 Oeste 35 Sudoeste 0 -- -- 81
2020-10-22 20:00:00 15.3 12 Sudoeste 18 Oeste 0 -- -- 78
2020-10-22 19:00:00 16.8 12 Oeste 26 Sudoeste 0 -- -- 69
2020-10-22 18:00:00 18 19 Sudoeste 31 Oeste 0.2 -- -- 66
2020-10-22 17:00:00 19.1 18 Sudoeste 24 Sudoeste 0 -- -- 60
2020-10-22 16:00:00 17.9 12 Sudoeste 27 Oeste 0 -- -- 72
2020-10-22 15:00:00 19.3 15 Sudoeste 28 Sudoeste 0 -- -- 67
2020-10-22 14:00:00 19.4 17 Sur 27 Sur 0 -- -- 65
2020-10-22 13:00:00 18.4 15 Sudoeste 23 Sur 0.2 -- -- 69
2020-10-22 12:00:00 16.7 6 Sudeste 15 Sur 0 -- -- 80
2020-10-22 11:00:00 16.3 5 Sur 10 Sudeste 0 -- -- 82
2020-10-22 10:00:00 14.1 7 Sudeste 11 Sudeste 0 -- -- 92
2020-10-22 09:00:00 12.2 6 Sur 10 Sur 0 -- -- 95
2020-10-22 08:00:00 12.7 7 Sur 9 Sur 0 -- -- 96
2020-10-22 07:00:00 11.8 0 Calma 9 Este 0 -- -- 94
2020-10-22 06:00:00 13 8 Este 10 Sudeste 0 -- -- 93
2020-10-22 05:00:00 13.3 0 Calma 12 Sur 0 -- -- 93
2020-10-22 04:00:00 13.8 9 Sur 19 Sudeste 0 -- -- 90
2020-10-22 03:00:00 14.1 14 Sur 22 Sudeste 0 -- -- 89
2020-10-22 02:00:00 13.9 13 Sur 19 Sur 0 -- -- 89
2020-10-22 01:00:00 14.1 10 Sur 22 Sur 0 -- -- 88
2020-10-22 00:00:00 14.4 12 Sudeste 20 Sur 0 -- -- 90
2020-10-21 23:00:00 14.5 8 Sur 31 Sur 2.2 -- -- 92
2020-10-21 22:00:00 15.6 18 Sur 27 Sur 0 -- -- 84
2020-10-21 21:00:00 15.9 10 Sur 28 Sur 0.2 -- -- 82
2020-10-21 20:00:00 17.3 19 Sur 29 Sudoeste 0 -- -- 71
2020-10-21 19:00:00 18.4 18 Sur 35 Sudoeste 0 -- -- 67
2020-10-21 18:00:00 19.4 24 Sur 40 Sur 0 -- -- 62
2020-10-21 17:00:00 20.3 24 Sur 39 Sur 0 -- -- 58
2020-10-21 16:00:00 20.1 20 Sudoeste 37 Sudoeste 0 -- -- 59
2020-10-21 15:00:00 19.6 24 Sur 35 Sur 0 -- -- 63
2020-10-21 14:00:00 18.9 23 Sudoeste 35 Sur 0 -- -- 65
2020-10-21 13:00:00 18.4 20 Sur 31 Sur 0 -- -- 68
2020-10-21 12:00:00 17 21 Sudoeste 33 Sudoeste 0.2 -- -- 73
2020-10-21 11:00:00 16.2 23 Sudoeste 33 Sudoeste 0 -- -- 79
2020-10-21 10:00:00 14.5 17 Sur 26 Sur 0 -- -- 87
2020-10-21 09:00:00 13.3 9 Sur 14 Sudoeste 0 -- -- 91
2020-10-21 08:00:00 13.3 8 Sudoeste 15 Sudoeste 0 -- -- 93
2020-10-21 07:00:00 13.2 6 Sur 18 Sur 0 -- -- 93
2020-10-21 06:00:00 14.1 10 Sur 24 Sur 0 -- -- 91
2020-10-21 05:00:00 14 9 Sur 35 Sudoeste 0.2 -- -- 92
2020-10-21 04:00:00 14.8 14 Sur 29 Sudoeste 0 -- -- 83
2020-10-21 03:00:00 14.6 15 Sur 32 Sur 0 -- -- 86
2020-10-21 02:00:00 14.8 22 Sur 36 Sur 0 -- -- 85
2020-10-21 01:00:00 15 26 Sudoeste 37 Sudoeste 0 -- -- 83
2020-10-21 00:00:00 14.9 24 Sudoeste 42 Sudoeste 0 -- -- 83
2020-10-20 23:00:00 14.7 18 Sur 39 Oeste 0.8 -- -- 90
2020-10-20 22:00:00 15.2 31 Oeste 60 Sudoeste 11.6 -- -- 87
2020-10-20 21:00:00 17 23 Sur 59 Sur 4.6 -- -- 92
2020-10-20 20:00:00 17.6 44 Sur 71 Sur 1.2 -- -- 86
2020-10-20 19:00:00 16.3 48 Sur 69 Sudeste 2 -- -- 88
2020-10-20 18:00:00 16.3 48 Sur 78 Sur 1 -- -- 85
2020-10-20 17:00:00 18.5 46 Sur 74 Sur 0 -- -- 78
2020-10-20 16:00:00 19.8 39 Sur 71 Sur 0 -- -- 76
2020-10-20 15:00:00 20.1 41 Sur 61 Sur 0 -- -- 74
2020-10-20 14:00:00 19.8 41 Sur 61 Sur 0 -- -- 72
2020-10-20 13:00:00 18.9 36 Sur 56 Sur 0 -- -- 79
2020-10-20 12:00:00 17.3 31 Sur 44 Sur 1 -- -- 87
2020-10-20 11:00:00 15.7 18 Sur 39 Sur 11.8 -- -- 93
2020-10-20 10:00:00 15.2 18 Sur 35 Sur 7.2 -- -- 93
2020-10-20 09:00:00 15 18 Sur 33 Sur 6.8 -- -- 93
2020-10-20 08:00:00 15 20 Sur 40 Sur 3 -- -- 91
2020-10-20 07:00:00 15.2 27 Sur 46 Sur 1.6 -- -- 90
2020-10-20 06:00:00 16 31 Sur 52 Sur 0 -- -- 81
2020-10-20 05:00:00 16.3 35 Sur 55 Sur 0 -- -- 78
2020-10-20 04:00:00 18 34 Sur 54 Sur 0 -- -- 65
2020-10-20 03:00:00 18.1 33 Sur 55 Sur 0 -- -- 65
2020-10-20 02:00:00 18.3 38 Sur 55 Sur 0 -- -- 66
2020-10-20 01:00:00 18.4 31 Sur 49 Sur 0 -- -- 64
2020-10-20 00:00:00 18.6 28 Sur 44 Sur 0 -- -- 63
2020-10-19 23:00:00 19.5 25 Sur 38 Sur 0 -- -- 55
2020-10-19 22:00:00 20.2 24 Sur 38 Sur 0 -- -- 48
2020-10-19 21:00:00 20.7 22 Sur 48 Sur 0 -- -- 47
2020-10-19 20:00:00 21.7 24 Sur 43 Sur 0 -- -- 43
2020-10-19 19:00:00 23.2 27 Sudoeste 49 Sur 0 -- -- 38
2020-10-19 18:00:00 25.1 30 Sur 50 Sur 0 -- -- 31
2020-10-19 17:00:00 26.5 28 Sur 50 Sur 0 -- -- 27
2020-10-19 16:00:00 26.6 34 Sur 53 Sur 0 -- -- 25
2020-10-19 15:00:00 27.5 34 Sur 55 Sur 0 -- -- 23
2020-10-19 14:00:00 26.6 31 Sur 49 Sur 0 -- -- 22
2020-10-19 13:00:00 26.3 28 Sur 49 Sur 0 -- -- 22
2020-10-19 12:00:00 23.3 23 Sur 39 Sur 0 -- -- 25
2020-10-19 11:00:00 20.7 20 Sur 31 Sudeste 0 -- -- 26
2020-10-19 10:00:00 15.1 9 Sudeste 15 Sudeste 0 -- -- 35
2020-10-19 09:00:00 11.1 6 Sudeste 11 Sudeste 0 -- -- 43
2020-10-19 08:00:00 12.4 6 Sudeste 30 Sudeste 0 -- -- 41
2020-10-19 07:00:00 14 21 Sudeste 28 Sudeste 0 -- -- 38
2020-10-19 06:00:00 13.9 18 Sudeste 31 Sudeste 0 -- -- 38
2020-10-19 05:00:00 14.6 21 Sudeste 30 Sudeste 0 -- -- 37
2020-10-19 04:00:00 14.2 20 Sudeste 28 Sudeste 0 -- -- 39
2020-10-19 03:00:00 13.7 21 Sudeste 29 Sudeste 0 -- -- 40
2020-10-19 02:00:00 13.6 18 Sudeste 23 Sudeste 0 -- -- 43
2020-10-19 01:00:00 13.2 11 Sudeste 14 Sudeste 0 -- -- 44
2020-10-19 00:00:00 13.9 11 Sudeste 15 Sudeste 0 -- -- 41
2020-10-18 23:00:00 15.6 12 Sudeste 14 Sudeste 0 -- -- 37
2020-10-18 22:00:00 17.3 9 Sur 14 Sur 0 -- -- 33
2020-10-18 21:00:00 19.4 12 Sur 16 Sur 0 -- -- 28
2020-10-18 20:00:00 21.4 9 Sur 22 Sur 0 -- -- 23
2020-10-18 19:00:00 24.9 14 Sur 25 Sudeste 0 -- -- 20
2020-10-18 18:00:00 25.9 12 Sudeste 32 Sudeste 0 -- -- 22
2020-10-18 17:00:00 25.7 12 Sur 30 Sudeste 0 -- -- 24
2020-10-18 16:00:00 24.9 13 Este 28 Sudeste 0 -- -- 24
2020-10-18 15:00:00 24.3 6 Sudeste 30 Este 0 -- -- 25
2020-10-18 14:00:00 23.3 12 Sudeste 27 Sudeste 0 -- -- 28
2020-10-18 13:00:00 22 15 Este 22 Sudeste 0 -- -- 31
2020-10-18 12:00:00 19.5 8 Sudeste 15 Este 0 -- -- 38
2020-10-18 11:00:00 17.1 7 Sudeste 13 Sudeste 0 -- -- 42
2020-10-18 10:00:00 13.2 8 Sudeste 17 Sudeste 0 -- -- 49
2020-10-18 09:00:00 10 7 Sudeste 21 Sudeste 0 -- -- 53
2020-10-18 08:00:00 10.6 18 Sudeste 23 Sudeste 0 -- -- 51
2020-10-18 07:00:00 6.9 8 Sudeste 10 Sudeste 0 -- -- 50
2020-10-18 06:00:00 6.6 5 Sudeste 6 Sudeste 0 -- -- 50
2020-10-18 05:00:00 7.9 5 Sur 11 Sudeste 0 -- -- 48
2020-10-18 04:00:00 6.9 8 Sudeste 10 Sudeste 0 -- -- 48
2020-10-18 03:00:00 6.9 4 Sudeste 7 Sur 0 -- -- 44
2020-10-18 02:00:00 7.6 5 Sudeste 8 Sur 0 -- -- 46
2020-10-18 01:00:00 8.7 6 Sur 10 Sur 0 -- -- 45
2020-10-18 00:00:00 8.7 6 Sudeste 8 Sur 0 -- -- 43
2020-10-17 23:00:00 9.6 4 Sudeste -- -- 0 -- -- 40
2020-10-17 22:00:00 11.3 4 Sur 5 Sur 0 -- -- 36
2020-10-17 21:00:00 14.7 0 Calma 6 Norte 0 -- -- 34
2020-10-17 20:00:00 18.8 5 Nordeste 17 Norte 0 -- -- 33
2020-10-17 19:00:00 21.1 11 Nordeste 18 Norte 0 -- -- 30
2020-10-17 18:00:00 22.4 8 Norte 22 Norte 0 -- -- 27
2020-10-17 17:00:00 22.8 9 Noroeste 18 Oeste 0 -- -- 25
2020-10-17 16:00:00 22.8 10 Noroeste 24 Sudoeste 0 -- -- 24
2020-10-17 15:00:00 22.1 6 Noroeste 22 Noroeste 0 -- -- 25
2020-10-17 14:00:00 21.6 5 Oeste 19 Sudoeste 0 -- -- 27
2020-10-17 13:00:00 20.4 4 Noroeste 12 Noroeste 0 -- -- 30
2020-10-17 12:00:00 18.3 5 Norte 9 Noroeste 0 -- -- 34
2020-10-17 11:00:00 17.1 4 Sur 9 Sudeste 0 -- -- 36
2020-10-17 10:00:00 10.8 3 Sur 5 Sur 0 -- -- 48
2020-10-17 09:00:00 4.5 3 Sur 7 Sur 0 -- -- 58
2020-10-17 08:00:00 4.5 4 Sur 5 Sudeste 0 -- -- 58
2020-10-17 07:00:00 4.8 4 Sur 7 Sudeste 0 -- -- 56
2020-10-17 06:00:00 4.8 5 Sudeste 8 Sur 0 -- -- 55
2020-10-17 05:00:00 5.1 6 Sudeste 10 Sur 0 -- -- 51
2020-10-17 04:00:00 8.8 0 Calma 16 Oeste 0 -- -- 45
2020-10-17 03:00:00 9.9 5 Sudeste 12 Sur 0 -- -- 46
2020-10-17 02:00:00 9.6 10 Sur 13 Sur 0 -- -- 45
2020-10-17 01:00:00 8.5 8 Sudeste 12 Sudeste 0 -- -- 46
2020-10-17 00:00:00 8.6 6 Sur 9 Sudeste 0 -- -- 42
2020-10-16 23:00:00 8.5 6 Sudeste 7 Sudeste 0 -- -- 38
2020-10-16 22:00:00 10.3 4 Sur 5 Sur 0 -- -- 34
2020-10-16 21:00:00 14.4 3 Norte 8 Nordeste 0 -- -- 33
2020-10-16 20:00:00 18.1 6 Nordeste 14 Norte 0 -- -- 29
2020-10-16 19:00:00 20.4 9 Norte 18 Norte 0 -- -- 27
2020-10-16 18:00:00 21.3 12 Norte 20 Nordeste 0 -- -- 26
2020-10-16 17:00:00 21.4 7 Noroeste 18 Este 0 -- -- 25
2020-10-16 16:00:00 21.3 11 Norte 27 Sudoeste 0 -- -- 26
2020-10-16 15:00:00 21.1 5 Este 16 Nordeste 0 -- -- 27
2020-10-16 14:00:00 20.3 7 Sur 22 Este 0 -- -- 29
2020-10-16 13:00:00 18.7 8 Este 18 Este 0 -- -- 33
2020-10-16 12:00:00 17 9 Este 17 Sudeste 0 -- -- 36
2020-10-16 11:00:00 14.3 9 Este 12 Sudeste 0 -- -- 41
2020-10-16 10:00:00 9 0 Calma 5 Sudeste 0 -- -- 52
2020-10-16 09:00:00 2.6 5 Sur 8 Sudeste 0 -- -- 60
2020-10-16 08:00:00 2.2 5 Sudeste 7 Sur 0 -- -- 61
2020-10-16 07:00:00 2.3 5 Sur 9 Sur 0 -- -- 58
2020-10-16 06:00:00 2.6 4 Sudeste 8 Sur 0 -- -- 54
2020-10-16 05:00:00 3.3 2 Sudeste 6 Sur 0 -- -- 52
2020-10-16 04:00:00 4.4 3 Sudeste 6 Sur 0 -- -- 48
2020-10-16 03:00:00 4.8 3 Sur 5 Sur 0 -- -- 43
2020-10-16 02:00:00 5.9 4 Sur 8 Sudoeste 0 -- -- 45
2020-10-16 01:00:00 5.6 6 Sur 7 Sur 0 -- -- 43
2020-10-16 00:00:00 6.5 4 Sur 6 Sudoeste 0 -- -- 39
2020-10-15 23:00:00 8.5 0 Calma 5 Noroeste 0 -- -- 36
2020-10-15 22:00:00 11.1 2 Sur 6 Noroeste 0 -- -- 36
2020-10-15 21:00:00 13.5 4 Oeste 7 Noroeste 0 -- -- 35
2020-10-15 20:00:00 17 6 Noroeste 13 Norte 0 -- -- 30
2020-10-15 19:00:00 19.3 8 Noroeste 22 Noroeste 0 -- -- 29
2020-10-15 18:00:00 19.8 7 Noroeste 20 Noroeste 0 -- -- 29
2020-10-15 17:00:00 19.6 14 Noroeste 27 Noroeste 0 -- -- 31
2020-10-15 16:00:00 19.5 11 Noroeste 25 Oeste 0 -- -- 33
2020-10-15 15:00:00 18.7 10 Norte 25 Noroeste 0 -- -- 37
2020-10-15 14:00:00 17.6 11 Norte 19 Noroeste 0 -- -- 42
2020-10-15 13:00:00 15.5 10 Noroeste 18 Noroeste 0 -- -- 48
2020-10-15 12:00:00 14 6 Oeste 14 Oeste 0 -- -- 56
2020-10-15 11:00:00 12 9 Noroeste 18 Noroeste 0 -- -- 63
2020-10-15 10:00:00 10.3 10 Oeste 17 Oeste 0 -- -- 70
2020-10-15 09:00:00 5.9 3 Oeste 13 Oeste 0 -- -- 80
2020-10-15 08:00:00 7 11 Oeste 14 Oeste 0 -- -- 80
2020-10-15 07:00:00 7.6 11 Oeste 16 Oeste 0 -- -- 77
2020-10-15 06:00:00 8 9 Oeste 14 Oeste 0 -- -- 75
2020-10-15 05:00:00 7.5 5 Oeste 12 Oeste 0 -- -- 73
2020-10-15 04:00:00 8.6 5 Sudoeste 14 Oeste 0 -- -- 65
2020-10-15 03:00:00 9.8 12 Oeste 17 Oeste 0 -- -- 62
2020-10-15 02:00:00 10.2 11 Oeste 16 Noroeste 0 -- -- 57
2020-10-15 01:00:00 11.4 8 Noroeste 14 Oeste 0 -- -- 51
2020-10-15 00:00:00 12.8 11 Noroeste 22 Oeste 0 -- -- 46
2020-10-14 23:00:00 11.3 7 Noroeste 14 Noroeste 0 -- -- 46
2020-10-14 22:00:00 13.3 4 Oeste 18 Noroeste 0 -- -- 40
2020-10-14 21:00:00 15.3 10 Oeste 16 Oeste 0 -- -- 36
2020-10-14 20:00:00 17.2 12 Noroeste 29 Norte 0 -- -- 32
2020-10-14 19:00:00 19 18 Noroeste 40 Norte 0 -- -- 29
2020-10-14 18:00:00 19.6 23 Noroeste 34 Noroeste 0 -- -- 28
2020-10-14 17:00:00 19.8 21 Noroeste 42 Noroeste 0 -- -- 29
2020-10-14 16:00:00 19.4 25 Noroeste 42 Noroeste 0 -- -- 32
2020-10-14 15:00:00 18.9 21 Noroeste 46 Norte 0 -- -- 37
2020-10-14 14:00:00 17.4 24 Noroeste 39 Noroeste 0 -- -- 41
2020-10-14 13:00:00 15.8 21 Noroeste 33 Noroeste 0 -- -- 50
2020-10-14 12:00:00 13.8 20 Noroeste 32 Noroeste 0 -- -- 57
2020-10-14 11:00:00 12.1 18 Noroeste 29 Noroeste 0 -- -- 64
2020-10-14 10:00:00 10.3 17 Oeste 28 Noroeste 0 -- -- 77
2020-10-14 09:00:00 9 17 Oeste 28 Oeste 0 -- -- 87
2020-10-14 08:00:00 8.9 14 Oeste 23 Oeste 0 -- -- 89
2020-10-14 07:00:00 9.1 13 Oeste 27 Oeste 0 -- -- 88
2020-10-14 06:00:00 9.3 14 Oeste 23 Oeste 0 -- -- 87
2020-10-14 05:00:00 9.7 13 Oeste 28 Oeste 0 -- -- 84
2020-10-14 04:00:00 10.3 17 Oeste 35 Oeste 0 -- -- 81
2020-10-14 03:00:00 11.3 19 Oeste 35 Oeste 0 -- -- 78
2020-10-14 02:00:00 12.8 23 Oeste 34 Oeste 0 -- -- 78
2020-10-14 01:00:00 13.8 21 Oeste 32 Noroeste 0 -- -- 80
2020-10-14 00:00:00 15.5 21 Noroeste 34 Noroeste 0 -- -- 76
2020-10-13 23:00:00 17.5 15 Oeste 30 Oeste 0 -- -- 68
2020-10-13 22:00:00 19.5 19 Oeste 32 Oeste 0 -- -- 59
2020-10-13 21:00:00 21.5 16 Oeste 24 Oeste 0 -- -- 40
2020-10-13 20:00:00 23 13 Noroeste 28 Noroeste 0 -- -- 35
2020-10-13 19:00:00 24.8 14 Oeste 26 Oeste 0 -- -- 31
2020-10-13 18:00:00 25.3 13 Noroeste 30 Noroeste 0 -- -- 31
2020-10-13 17:00:00 25.3 15 Noroeste 26 Oeste 0 -- -- 31
2020-10-13 16:00:00 24.7 17 Noroeste 29 Oeste 0 -- -- 31
2020-10-13 15:00:00 24.3 11 Oeste 18 Noroeste 0 -- -- 31
2020-10-13 14:00:00 23.3 9 Noroeste 18 Noroeste 0 -- -- 30
2020-10-13 13:00:00 22.1 6 Noroeste 12 Oeste 0 -- -- 28
2020-10-13 12:00:00 20.9 4 Norte 9 Noroeste 0 -- -- 28
2020-10-13 11:00:00 17.6 5 Sudoeste 8 Sudoeste 0 -- -- 34
2020-10-13 10:00:00 12.1 3 Sur 5 Sur 0 -- -- 44
2020-10-13 09:00:00 4.6 4 Sur 5 Sur 0 -- -- 52
2020-10-13 08:00:00 3.8 4 Sur 6 Sur 0 -- -- 51
2020-10-13 07:00:00 3.7 2 Sudeste 3 Sudeste 0 -- -- 48
2020-10-13 06:00:00 4.3 4 Sudeste 7 Sur 0 -- -- 46
2020-10-13 05:00:00 4.5 3 Sudeste 6 Sur 0 -- -- 44
2020-10-13 04:00:00 5 2 Sudeste 6 Sur 0 -- -- 47
2020-10-13 03:00:00 5.5 4 Sudeste 7 Sur 0 -- -- 43
2020-10-13 02:00:00 6.5 3 Sur 7 Sur 0 -- -- 39
2020-10-13 01:00:00 -- -- -- -- -- -- -- -- --
2020-10-13 00:00:00 8.2 2 Sudeste 6 Sur 0 -- -- 40
2020-10-12 23:00:00 9.4 4 Sur 7 Sur 0 -- -- 35
2020-10-12 22:00:00 10.8 7 Sudoeste 9 Sudoeste 0 -- -- 34
2020-10-12 21:00:00 13.8 0 Calma 7 Nordeste 0 -- -- 31
2020-10-12 20:00:00 18.8 5 Norte 15 Nordeste 0 -- -- 28
2020-10-12 19:00:00 20.7 11 Norte 21 Norte 0 -- -- 26
2020-10-12 18:00:00 21.5 14 Norte 26 Nordeste 0 -- -- 25
2020-10-12 17:00:00 22.2 12 Norte 25 Noroeste 0 -- -- 23
2020-10-12 16:00:00 21.7 13 Nordeste 26 Nordeste 0 -- -- 23
2020-10-12 15:00:00 20.8 10 Nordeste 22 Nordeste 0 -- -- 25
2020-10-12 14:00:00 20.1 9 Nordeste 23 Este 0 -- -- 27
2020-10-12 13:00:00 18.7 13 Nordeste 24 Este 0 -- -- 30
2020-10-12 12:00:00 17.2 12 Este 21 Este 0 -- -- 34
2020-10-12 11:00:00 15.2 12 Este 21 Este 0 -- -- 38
2020-10-12 10:00:00 12.6 5 Este 10 Este 0 -- -- 44
2020-10-12 09:00:00 5.1 3 Este 6 Este 0 -- -- 53
2020-10-12 08:00:00 6 3 Sur 8 Sur 0 -- -- 48
2020-10-12 07:00:00 9.2 5 Este 14 Este 0 -- -- 44
2020-10-12 06:00:00 12.1 11 Este 18 Este 0 -- -- 40
2020-10-12 05:00:00 12.1 10 Sudeste 15 Sudeste 0 -- -- 39
2020-10-12 04:00:00 -- -- -- -- -- -- -- -- --
2020-10-12 03:00:00 8 3 Este 8 Sudeste 0 -- -- 41
2020-10-12 02:00:00 8.8 2 Sudeste 6 Sudeste 0 -- -- 40
2020-10-12 01:00:00 9.4 4 Este 9 Nordeste 0 -- -- 39
2020-10-12 00:00:00 10.1 5 Nordeste 8 Nordeste 0 -- -- 41
2020-10-11 23:00:00 12.8 0 Calma 9 Nordeste 0 -- -- 37
2020-10-11 22:00:00 16.9 6 Norte 15 Norte 0 -- -- 35
2020-10-11 21:00:00 -- -- -- -- -- -- -- -- --
2020-10-11 20:00:00 -- -- -- -- -- -- -- -- --
2020-10-11 19:00:00 24 14 Norte 26 Norte 0 -- -- 29
2020-10-11 18:00:00 25.1 13 Norte 21 Norte 0 -- -- 28
2020-10-11 17:00:00 25 10 Nordeste 26 Nordeste 0 -- -- 28
2020-10-11 16:00:00 25.1 17 Nordeste 35 Norte 0 -- -- 29
2020-10-11 15:00:00 24.6 18 Nordeste 30 Norte 0 -- -- 30
2020-10-11 14:00:00 23.5 14 Nordeste 26 Nordeste 0 -- -- 32
2020-10-11 13:00:00 22.8 14 Nordeste 25 Nordeste 0 -- -- 35
2020-10-11 12:00:00 20.8 12 Nordeste 24 Nordeste 0 -- -- 40
2020-10-11 11:00:00 19.3 5 Nordeste 10 Este 0 -- -- 46
2020-10-11 10:00:00 14.1 0 Calma 5 Sudoeste 0 -- -- 61
2020-10-11 09:00:00 7.5 0 Calma 6 Sur 0 -- -- 65
2020-10-11 08:00:00 7.1 3 Sudeste 6 Sur 0 -- -- 65
2020-10-11 07:00:00 7.7 3 Sudeste 4 Sur 0 -- -- 62
2020-10-11 06:00:00 8.8 3 Sudeste 8 Sur 0 -- -- 62
2020-10-11 05:00:00 11 3 Sudoeste 8 Oeste 0 -- -- 51
2020-10-11 04:00:00 13.3 4 Sudoeste 10 Oeste 0 -- -- 55
2020-10-11 03:00:00 13.3 5 Sudoeste 6 Sudoeste 0 -- -- 53
2020-10-11 02:00:00 14.4 3 Sur 7 Sur 0 -- -- 48
2020-10-11 01:00:00 13.8 2 Sudoeste 5 Noroeste 0 -- -- 47
2020-10-11 00:00:00 14 2 Oeste 3 Oeste 0 -- -- 44
2020-10-10 23:00:00 16.5 0 Calma 3 Sur 0 -- -- 39
2020-10-10 22:00:00 20.1 0 Calma 10 Noroeste 0 -- -- 38
2020-10-10 21:00:00 22.6 8 Noroeste 12 Noroeste 0 -- -- 34
2020-10-10 20:00:00 25.6 7 Noroeste 18 Noroeste 0 -- -- 29
2020-10-10 19:00:00 28.1 13 Noroeste 21 Noroeste 0 -- -- 27
2020-10-10 18:00:00 29 14 Noroeste 21 Noroeste 0 -- -- 27
2020-10-10 17:00:00 29 14 Noroeste 22 Noroeste 0 -- -- 28
2020-10-10 16:00:00 29.1 12 Noroeste 21 Noroeste 0 -- -- 28
2020-10-10 15:00:00 28.3 8 Noroeste 19 Noroeste 0 -- -- 31
2020-10-10 14:00:00 27.2 5 Noroeste 15 Norte 0 -- -- 34
2020-10-10 13:00:00 25.8 9 Noroeste 14 Noroeste 0 -- -- 39
2020-10-10 12:00:00 23.6 5 Norte 13 Noroeste 0 -- -- 43
2020-10-10 11:00:00 22.2 2 Nordeste 9 Sudeste 0 -- -- 47
2020-10-10 10:00:00 18 8 Sudeste 12 Sudeste 0 -- -- 57
2020-10-10 09:00:00 11 8 Sur 10 Sur 0 -- -- 68
2020-10-10 08:00:00 10.8 4 Sur 5 Sur 0 -- -- 67
2020-10-10 07:00:00 11.3 2 Sudeste 7 Sur 0 -- -- 64
2020-10-10 06:00:00 11.7 5 Sur 6 Sur 0 -- -- 60
2020-10-10 05:00:00 12.4 0 Calma 5 Sur 0 -- -- 53
2020-10-10 04:00:00 13.1 0 Calma 7 Sur 0 -- -- 59
2020-10-10 03:00:00 13.5 5 Sur 6 Sur 0 -- -- 52
2020-10-10 02:00:00 14 3 Sudeste 7 Sur 0 -- -- 51
2020-10-10 01:00:00 15.1 0 Calma 6 Sudeste 0 -- -- 51
2020-10-10 00:00:00 16.3 4 Sur 6 Sudoeste 0 -- -- 44
2020-10-09 23:00:00 18.5 3 Sur 4 Sur 0 -- -- 43
2020-10-09 22:00:00 19.6 0 Calma 4 Noroeste 0 -- -- 36
2020-10-09 21:00:00 21.2 4 Noroeste 9 Norte 0 -- -- 37
2020-10-09 20:00:00 24.8 8 Norte 21 Noroeste 0 -- -- 33
2020-10-09 19:00:00 27 17 Noroeste 26 Norte 0 -- -- 32
2020-10-09 18:00:00 29.3 9 Noroeste 21 Noroeste 0 -- -- 29
2020-10-09 17:00:00 29.1 9 Noroeste 22 Oeste 0 -- -- 28
2020-10-09 16:00:00 29 13 Noroeste 21 Noroeste 0 -- -- 29
2020-10-09 15:00:00 28.6 9 Noroeste 19 Norte 0 -- -- 31
2020-10-09 14:00:00 27.7 7 Noroeste 12 Noroeste 0 -- -- 31
2020-10-09 13:00:00 26.8 4 Nordeste 8 Nordeste 0 -- -- 33
2020-10-09 12:00:00 25.8 4 Sudeste 7 Sur 0 -- -- 38
2020-10-09 11:00:00 23.2 0 Calma 4 Sur 0 -- -- 43
2020-10-09 10:00:00 18.5 3 Sudeste 6 Sudeste 0 -- -- 55
2020-10-09 09:00:00 11.9 6 Sudeste 7 Sur 0 -- -- 65
2020-10-09 08:00:00 11.4 5 Sudeste 7 Sudeste 0 -- -- 64
2020-10-09 07:00:00 11.2 4 Sudeste 6 Sur 0 -- -- 58
2020-10-09 06:00:00 11.7 4 Sudeste 6 Sur 0 -- -- 53
2020-10-09 05:00:00 13.7 2 Sudoeste 4 Oeste 0 -- -- 49
2020-10-09 04:00:00 16.3 0 Calma 5 Sudoeste 0 -- -- 41
2020-10-09 03:00:00 17 2 Sudoeste 6 Sudeste 0 -- -- 46
2020-10-09 02:00:00 17.2 6 Sudoeste 8 Sudoeste 0 -- -- 42
2020-10-09 01:00:00 17.7 6 Sudoeste 12 Sudoeste 0 -- -- 42
2020-10-09 00:00:00 17.5 3 Sudoeste 8 Sudoeste 0 -- -- 43
2020-10-08 23:00:00 18.1 4 Sur 8 Sur 0 -- -- 41
2020-10-08 22:00:00 19.9 4 Sudeste 7 Sur 0 -- -- 37
2020-10-08 21:00:00 23.1 0 Calma 9 Noroeste 0 -- -- 35
2020-10-08 20:00:00 27.1 8 Noroeste 15 Norte 0 -- -- 30
2020-10-08 19:00:00 28.7 13 Norte 23 Noroeste 0 -- -- 28
2020-10-08 18:00:00 30.3 12 Noroeste 28 Noroeste 0 -- -- 27
2020-10-08 17:00:00 30.5 11 Oeste 22 Oeste 0 -- -- 25
2020-10-08 16:00:00 30.8 12 Noroeste 21 Oeste 0 -- -- 25
2020-10-08 15:00:00 30.5 8 Noroeste 21 Sudoeste 0 -- -- 24
2020-10-08 14:00:00 30.3 11 Sur 21 Sudoeste 0 -- -- 25
2020-10-08 13:00:00 30 14 Sur 25 Sur 0 -- -- 26
2020-10-08 12:00:00 28.1 14 Sur 24 Sudeste 0 -- -- 29
2020-10-08 11:00:00 24.8 14 Sudeste 21 Sudeste 0 -- -- 37
2020-10-08 10:00:00 19.7 14 Sudeste 18 Sudeste 0 -- -- 44
2020-10-08 09:00:00 11.7 0 Calma 6 Sudeste 0 -- -- 60
2020-10-08 08:00:00 12 4 Sudoeste 9 Sudeste 0 -- -- 59
2020-10-08 07:00:00 12.5 6 Sur 8 Sur 0 -- -- 58
2020-10-08 06:00:00 12.5 5 Sur 8 Sur 0 -- -- 55
2020-10-08 05:00:00 12.4 5 Sudeste 8 Sudeste 0 -- -- 54
2020-10-08 04:00:00 11.5 6 Sudeste 7 Sudeste 0 -- -- 51
2020-10-08 03:00:00 11.7 4 Sudeste 8 Sur 0 -- -- 50
2020-10-08 02:00:00 12.3 5 Sudeste 9 Sur 0 -- -- 48
2020-10-08 01:00:00 13.5 2 Sudeste 6 Sudeste 0 -- -- 47
2020-10-08 00:00:00 13.5 3 Sudeste 6 Sur 0 -- -- 45
2020-10-07 23:00:00 14.8 5 Sur 7 Sur 0 -- -- 41
2020-10-07 22:00:00 17.3 4 Sur 9 Noroeste 0 -- -- 38
2020-10-07 21:00:00 21.6 2 Norte 9 Nordeste 0 -- -- 34
2020-10-07 20:00:00 25.6 7 Norte 14 Norte 0 -- -- 31
2020-10-07 19:00:00 27.9 12 Norte 19 Noroeste 0 -- -- 28
2020-10-07 18:00:00 28.5 8 Norte 20 Norte 0 -- -- 27
2020-10-07 17:00:00 28.5 8 Norte 18 Norte 0 -- -- 28
2020-10-07 16:00:00 28.4 7 Noroeste 18 Este 0 -- -- 27
2020-10-07 15:00:00 27.5 7 Este 15 Nordeste 0 -- -- 30
2020-10-07 14:00:00 26.3 6 Nordeste 15 Este 0 -- -- 33
2020-10-07 13:00:00 24.4 7 Norte 14 Norte 0 -- -- 43
2020-10-07 12:00:00 21.7 4 Norte 8 Norte 0 -- -- 55
2020-10-07 11:00:00 18.7 4 Noroeste 9 Noroeste 0 -- -- 66
2020-10-07 10:00:00 16.1 0 Calma 6 Sur 0 -- -- 73
2020-10-07 09:00:00 9 4 Sur 7 Sudeste 0 -- -- 87
2020-10-07 08:00:00 9 0 Calma 6 Sur 0 -- -- 86
2020-10-07 07:00:00 9.9 3 Sur 8 Sur 0 -- -- 81
2020-10-07 06:00:00 11.7 2 Sur 7 Sudoeste 0 -- -- 76
2020-10-07 05:00:00 13.4 4 Sur 7 Sur 0 -- -- 77
2020-10-07 04:00:00 14.6 3 Oeste 8 Noroeste 0 -- -- 76
2020-10-07 03:00:00 15.1 3 Sudoeste 9 Sudoeste 0 -- -- 73
2020-10-07 02:00:00 15.4 4 Sudoeste 8 Oeste 0 -- -- 66
2020-10-07 01:00:00 16.2 4 Sudoeste 6 Oeste 0 -- -- 66
2020-10-07 00:00:00 15.2 5 Oeste 10 Oeste 0 -- -- 66
2020-10-06 23:00:00 15.6 4 Sur 5 Sur 0 -- -- 60
2020-10-06 22:00:00 18.8 4 Sur 6 Noroeste 0 -- -- 52
2020-10-06 21:00:00 22.1 4 Noroeste 13 Noroeste 0 -- -- 51
2020-10-06 20:00:00 24.5 10 Noroeste 21 Norte 0 -- -- 46
2020-10-06 19:00:00 25.6 11 Noroeste 23 Noroeste 0 -- -- 46
2020-10-06 18:00:00 25.5 12 Noroeste 23 Noroeste 0 -- -- 47
2020-10-06 17:00:00 25.2 14 Noroeste 24 Norte 0 -- -- 49
2020-10-06 16:00:00 24.6 12 Noroeste 24 Oeste 0 -- -- 52
2020-10-06 15:00:00 23.1 10 Norte 19 Este 0 -- -- 57
2020-10-06 14:00:00 21.5 7 Norte 20 Noroeste 0 -- -- 62
2020-10-06 13:00:00 19.8 12 Noroeste 21 Noroeste 0 -- -- 68
2020-10-06 12:00:00 17.2 9 Noroeste 16 Noroeste 0 -- -- 81
2020-10-06 11:00:00 15 10 Noroeste 16 Noroeste 0 -- -- 90
2020-10-06 10:00:00 13.8 8 Oeste 12 Oeste 0 -- -- 93
2020-10-06 09:00:00 9.9 0 Calma 4 Sur 0 -- -- 89
2020-10-06 08:00:00 10.4 4 Sur 6 Sudeste 0 -- -- 90
2020-10-06 07:00:00 11.9 6 Oeste 10 Oeste 0 -- -- 90
2020-10-06 06:00:00 12.2 5 Oeste 14 Oeste 0 -- -- 86
2020-10-06 05:00:00 12.9 9 Oeste 12 Oeste 0 -- -- 86
2020-10-06 04:00:00 13.3 7 Oeste 12 Noroeste 0 -- -- 84
2020-10-06 03:00:00 13.4 8 Oeste 13 Oeste 0 -- -- 81
2020-10-06 02:00:00 13.6 10 Oeste 15 Oeste 0 -- -- 78
2020-10-06 01:00:00 14.2 9 Oeste 14 Oeste 0 -- -- 74
2020-10-06 00:00:00 15.7 10 Noroeste 18 Noroeste 0 -- -- 69
2020-10-05 23:00:00 16.5 8 Noroeste 18 Noroeste 0 -- -- 64
2020-10-05 22:00:00 17.2 12 Noroeste 19 Noroeste 0 -- -- 57
2020-10-05 21:00:00 16.8 7 Oeste 11 Noroeste 0 -- -- 49
2020-10-05 20:00:00 19.3 9 Noroeste 26 Noroeste 0 -- -- 44
2020-10-05 19:00:00 20.8 17 Noroeste 30 Oeste 0 -- -- 42
2020-10-05 18:00:00 21.6 17 Noroeste 31 Noroeste 0 -- -- 39
2020-10-05 17:00:00 21.5 19 Noroeste 32 Oeste 0 -- -- 38
2020-10-05 16:00:00 20.9 19 Noroeste 36 Oeste 0 -- -- 38
2020-10-05 15:00:00 19.6 17 Noroeste 33 Noroeste 0 -- -- 46
2020-10-05 14:00:00 18.5 17 Noroeste 34 Noroeste 0 -- -- 49
2020-10-05 13:00:00 17.4 16 Noroeste 30 Norte 0 -- -- 53
2020-10-05 12:00:00 15.9 17 Noroeste 27 Noroeste 0 -- -- 62
2020-10-05 11:00:00 13.9 14 Noroeste 21 Oeste 0 -- -- 75
2020-10-05 10:00:00 12 14 Noroeste 22 Noroeste 0 -- -- 87
2020-10-05 09:00:00 10 11 Oeste 18 Oeste 0 -- -- 95
2020-10-05 08:00:00 9.5 10 Oeste 21 Oeste 0 -- -- 92
2020-10-05 07:00:00 10.2 12 Oeste 22 Oeste 0 -- -- 88
2020-10-05 06:00:00 9.4 9 Oeste 16 Oeste 0 -- -- 88
2020-10-05 05:00:00 10.5 11 Oeste 23 Noroeste 0 -- -- 84
2020-10-05 04:00:00 10.2 13 Oeste 19 Oeste 0 -- -- 82
2020-10-05 03:00:00 10.5 13 Oeste 18 Oeste 0 -- -- 78
2020-10-05 02:00:00 11.5 12 Oeste 23 Oeste 0 -- -- 72
2020-10-05 01:00:00 12.4 15 Noroeste 21 Oeste 0 -- -- 67
2020-10-05 00:00:00 13.6 15 Noroeste 24 Oeste 0 -- -- 62
2020-10-04 23:00:00 14.4 17 Oeste 24 Oeste 0 -- -- 59
2020-10-04 22:00:00 15.3 13 Noroeste 27 Noroeste 0 -- -- 56
2020-10-04 21:00:00 16.2 15 Noroeste 24 Noroeste 0 -- -- 54
2020-10-04 20:00:00 17.6 20 Noroeste 32 Noroeste 0 -- -- 51
2020-10-04 19:00:00 19.3 21 Noroeste 38 Oeste 0 -- -- 45
2020-10-04 18:00:00 19.4 23 Noroeste 40 Noroeste 0 -- -- 47
2020-10-04 17:00:00 18.9 23 Oeste 36 Noroeste 0 -- -- 57
2020-10-04 16:00:00 16.6 19 Oeste 36 Oeste 0 -- -- 75
2020-10-04 15:00:00 16.2 26 Oeste 40 Oeste 0 -- -- 83
2020-10-04 14:00:00 16.3 18 Sudoeste 29 Oeste 0 -- -- 76
2020-10-04 13:00:00 16.9 17 Oeste 32 Oeste 0 -- -- 68
2020-10-04 12:00:00 16.2 16 Oeste 26 Oeste 0 -- -- 67
2020-10-04 11:00:00 14.5 13 Sudoeste 23 Sudoeste 0 -- -- 71
2020-10-04 10:00:00 11.8 8 Sur 13 Sudoeste 0 -- -- 81
2020-10-04 09:00:00 8.2 8 Sur 11 Sur 0 -- -- 92
2020-10-04 08:00:00 6.9 9 Sur 13 Sudoeste 0 -- -- 91
2020-10-04 07:00:00 7.1 7 Sudoeste 12 Sudoeste 0 -- -- 89
2020-10-04 06:00:00 9.1 9 Oeste 13 Oeste 0 -- -- 84
2020-10-04 05:00:00 8.1 10 Sudoeste 13 Oeste 0 -- -- 86
2020-10-04 04:00:00 8.9 6 Oeste 12 Oeste 0 -- -- 81
2020-10-04 03:00:00 10.1 9 Oeste 14 Oeste 0 -- -- 75
2020-10-04 02:00:00 10.9 8 Oeste 15 Oeste 0 -- -- 70
2020-10-04 01:00:00 11.7 10 Oeste 17 Oeste 0 -- -- 66
2020-10-04 00:00:00 12 11 Oeste 15 Oeste 0 -- -- 64
2020-10-03 23:00:00 11.5 8 Oeste 12 Oeste 0 -- -- 63
2020-10-03 22:00:00 12.9 9 Oeste 18 Oeste 0 -- -- 57
2020-10-03 21:00:00 15.6 15 Noroeste 23 Oeste 0 -- -- 50
2020-10-03 20:00:00 16.5 15 Noroeste 36 Noroeste 0 -- -- 48
2020-10-03 19:00:00 17.6 24 Oeste 36 Oeste 0 -- -- 44
2020-10-03 18:00:00 18.8 22 Noroeste 40 Noroeste 0 -- -- 40
2020-10-03 17:00:00 17.7 24 Noroeste 43 Noroeste 0 -- -- 42
2020-10-03 16:00:00 19.1 23 Noroeste 38 Noroeste 0 -- -- 39
2020-10-03 15:00:00 17.8 24 Oeste 38 Noroeste 0 -- -- 42
2020-10-03 14:00:00 16.7 19 Noroeste 32 Noroeste 0 -- -- 44
2020-10-03 13:00:00 15.8 16 Noroeste 32 Oeste 0 -- -- 48
2020-10-03 12:00:00 13.9 20 Noroeste 29 Oeste 0 -- -- 63
2020-10-03 11:00:00 12.4 16 Noroeste 24 Noroeste 0 -- -- 70
2020-10-03 10:00:00 10.3 13 Oeste 22 Oeste 0 -- -- 86
2020-10-03 09:00:00 8.3 12 Oeste 26 Oeste 0 -- -- 94
2020-10-03 08:00:00 8.2 15 Oeste 26 Oeste 0 -- -- 94
2020-10-03 07:00:00 8.6 16 Oeste 29 Oeste 0 -- -- 92
2020-10-03 06:00:00 8.7 17 Oeste 28 Oeste 0 -- -- 90
2020-10-03 05:00:00 8.9 18 Oeste 30 Oeste 0 -- -- 87
2020-10-03 04:00:00 9 15 Oeste 31 Oeste 0 -- -- 84
2020-10-03 03:00:00 9.5 20 Oeste 35 Oeste 0 -- -- 81
2020-10-03 02:00:00 9.9 21 Noroeste 34 Oeste 0 -- -- 78
2020-10-03 01:00:00 10.2 22 Oeste 35 Oeste 0 -- -- 75
2020-10-03 00:00:00 10.4 22 Oeste 37 Oeste 0 -- -- 73
2020-10-02 23:00:00 10.8 24 Oeste 37 Noroeste 0 -- -- 70
2020-10-02 22:00:00 11.5 26 Oeste 39 Noroeste 0 -- -- 66
2020-10-02 21:00:00 12.1 21 Oeste 40 Noroeste 0 -- -- 63
2020-10-02 20:00:00 13.6 22 Oeste 48 Oeste 0 -- -- 59
2020-10-02 19:00:00 15.2 32 Noroeste 53 Noroeste 0 -- -- 56
2020-10-02 18:00:00 15.5 31 Noroeste 51 Noroeste 0 -- -- 63
2020-10-02 17:00:00 13.9 41 Noroeste 64 Noroeste 0.4 -- -- 73
2020-10-02 16:00:00 15.9 35 Oeste 55 Oeste 0.8 -- -- 81
2020-10-02 15:00:00 15.6 34 Oeste 61 Oeste 0 -- -- 84
2020-10-02 14:00:00 15.8 34 Oeste 66 Oeste 0.6 -- -- 88
2020-10-02 13:00:00 19 39 Oeste 61 Oeste 0 -- -- 75
2020-10-02 12:00:00 17.5 37 Oeste 58 Sudoeste 0 -- -- 86
2020-10-02 11:00:00 18.1 32 Oeste 51 Oeste 0 -- -- 80
2020-10-02 10:00:00 16.6 26 Oeste 46 Oeste 0 -- -- 87
2020-10-02 09:00:00 15.9 26 Sudoeste 42 Sudoeste 0 -- -- 86
2020-10-02 08:00:00 15.6 26 Sudoeste 39 Sudoeste 0 -- -- 83
2020-10-02 07:00:00 15.2 25 Sudoeste 43 Oeste 0 -- -- 83
2020-10-02 06:00:00 15.1 22 Oeste 32 Oeste 0 -- -- 80
2020-10-02 05:00:00 15.3 21 Oeste 35 Oeste 0 -- -- 76
2020-10-02 04:00:00 15 21 Oeste 37 Oeste 0 -- -- 75
2020-10-02 03:00:00 14.7 28 Oeste 42 Oeste 0 -- -- 75
2020-10-02 02:00:00 14.9 17 Oeste 31 Oeste 0 -- -- 72
2020-10-02 01:00:00 15.3 18 Oeste 36 Oeste 0 -- -- 70
2020-10-02 00:00:00 16.1 17 Oeste 34 Oeste 0 -- -- 66
2020-10-01 23:00:00 17.1 24 Oeste 37 Oeste 0 -- -- 62
2020-10-01 22:00:00 18 19 Noroeste 36 Noroeste 0 -- -- 59
2020-10-01 21:00:00 18.9 21 Noroeste 36 Oeste 0 -- -- 58
2020-10-01 20:00:00 20.6 23 Noroeste 38 Noroeste 0 -- -- 55
2020-10-01 19:00:00 21.8 20 Oeste 36 Noroeste 0 -- -- 50
2020-10-01 18:00:00 22.7 26 Oeste 40 Oeste 0 -- -- 49
2020-10-01 17:00:00 23.4 23 Noroeste 42 Oeste 0 -- -- 47
2020-10-01 16:00:00 23.5 29 Oeste 41 Oeste 0 -- -- 50
2020-10-01 15:00:00 23.1 24 Oeste 36 Oeste 0 -- -- 53
2020-10-01 14:00:00 21.7 20 Oeste 31 Noroeste 0 -- -- 59
2020-10-01 13:00:00 20.2 17 Noroeste 31 Noroeste 0 -- -- 64
2020-10-01 12:00:00 18.4 16 Oeste 25 Noroeste 0 -- -- 66
2020-10-01 11:00:00 16.1 14 Oeste 24 Oeste 0 -- -- 70
2020-10-01 10:00:00 13.8 15 Oeste 21 Oeste 0 -- -- 79
2020-10-01 09:00:00 12.2 12 Oeste 18 Oeste 0 -- -- 83
2020-10-01 08:00:00 11.8 9 Oeste 23 Oeste 0 -- -- 81
2020-10-01 07:00:00 10.6 3 Noroeste 12 Oeste 0 -- -- 85
2020-10-01 06:00:00 12.3 10 Oeste 21 Oeste 0 -- -- 82
2020-10-01 05:00:00 12.4 8 Sudeste 15 Oeste 0 -- -- 82
2020-10-01 04:00:00 13.9 11 Oeste 27 Noroeste 0 -- -- 80
2020-10-01 03:00:00 15 19 Oeste 28 Oeste 0 -- -- 77
2020-10-01 02:00:00 15.5 4 Sudoeste 18 Oeste 0 -- -- 74
2020-10-01 01:00:00 17.3 13 Oeste 29 Oeste 0 -- -- 70
2020-10-01 00:00:00 18.9 18 Oeste 31 Oeste 0 -- -- 63
2020-09-30 23:00:00 19.4 12 Oeste 17 Oeste 0 -- -- 44
2020-09-30 22:00:00 21 13 Oeste 17 Oeste 0 -- -- 36
2020-09-30 21:00:00 23.1 12 Oeste 25 Oeste 0 -- -- 33
2020-09-30 20:00:00 24.7 19 Oeste 30 Oeste 0 -- -- 33
2020-09-30 19:00:00 25.9 22 Noroeste 32 Oeste 0 -- -- 28
2020-09-30 18:00:00 27.3 19 Noroeste 33 Noroeste 0 -- -- 29
2020-09-30 17:00:00 29.7 17 Oeste 28 Noroeste 0 -- -- 28
2020-09-30 16:00:00 29.5 9 Noroeste 23 Oeste 0 -- -- 26
2020-09-30 15:00:00 28.8 10 Noroeste 22 Noroeste 0 -- -- 25
2020-09-30 14:00:00 27.6 9 Noroeste 16 Oeste 0 -- -- 28
2020-09-30 13:00:00 25.7 6 Oeste 11 Oeste 0 -- -- 32
2020-09-30 12:00:00 23.8 2 Norte 6 Oeste 0 -- -- 38
2020-09-30 11:00:00 20.9 3 Oeste 6 Noroeste 0 -- -- 47
2020-09-30 10:00:00 14.8 0 Calma -- -- 0 -- -- 48
2020-09-30 09:00:00 10.8 0 Calma 7 Sur 0 -- -- 51
2020-09-30 08:00:00 10.9 2 Sudeste 5 Sudeste 0 -- -- 50
2020-09-30 07:00:00 11.1 4 Sur 8 Sur 0 -- -- 48
2020-09-30 06:00:00 12 4 Sur 6 Sur 0 -- -- 44
2020-09-30 05:00:00 13 2 Sudeste 6 Sur 0 -- -- 40
2020-09-30 04:00:00 14.7 4 Sudeste 6 Sudeste 0 -- -- 39
2020-09-30 03:00:00 14.8 5 Sur 8 Sudoeste 0 -- -- 38
2020-09-30 02:00:00 15 5 Sur 9 Sur 0 -- -- 34
2020-09-30 01:00:00 16 3 Sur 6 Sur 0 -- -- 35
2020-09-30 00:00:00 16.9 4 Sudeste 6 Sur 0 -- -- 33